createdAt,value
2023-11-30T00:00:15.532Z,-6.25
2023-11-30T00:15:17.567Z,-6.37
2023-11-30T00:30:19.713Z,-6.43
2023-11-30T00:45:21.756Z,-6.46
2023-11-30T01:00:23.710Z,-6.52
2023-11-30T01:15:25.744Z,-6.50
2023-11-30T01:30:28.013Z,-6.54
2023-11-30T01:45:30.197Z,-6.50
2023-11-30T02:00:33.381Z,-6.37
2023-11-30T02:15:35.595Z,-6.35
2023-11-30T02:30:38.521Z,-5.97
2023-11-30T02:45:40.718Z,-5.49
2023-11-30T03:00:42.743Z,-5.57
2023-11-30T03:15:46.094Z,-5.66
2023-11-30T03:30:48.153Z,-5.46
2023-11-30T03:45:50.175Z,-4.94
2023-11-30T04:00:52.140Z,-4.71
2023-11-30T04:15:54.220Z,-4.42
2023-11-30T04:30:56.303Z,-4.12
2023-11-30T04:45:58.445Z,-3.86
2023-11-30T05:01:00.418Z,-3.60
2023-11-30T05:16:02.368Z,-3.44
2023-11-30T05:31:04.693Z,-3.32
2023-11-30T05:46:06.885Z,-3.43
2023-11-30T06:01:09.394Z,-3.43
2023-11-30T06:16:12.767Z,-3.25
2023-11-30T06:31:17.992Z,-3.30
2023-11-30T06:46:22.109Z,-3.56
2023-11-30T07:01:28.621Z,-3.70
2023-11-30T07:16:30.696Z,-3.39
2023-11-30T07:31:32.707Z,-2.91
2023-11-30T07:46:35.817Z,-3.18
2023-11-30T08:01:37.825Z,-3.20
2023-11-30T08:16:41.903Z,-2.56
2023-11-30T08:31:44.246Z,-2.01
2023-11-30T08:46:47.193Z,-1.51
2023-11-30T09:01:50.178Z,-0.99
2023-11-30T09:16:52.235Z,-0.46
2023-11-30T09:31:55.724Z,0.05
2023-11-30T09:46:59.020Z,-0.06
2023-11-30T10:02:04.490Z,-0.19
2023-11-30T10:17:08.683Z,-0.12
2023-11-30T10:32:14.553Z,-0.09
2023-11-30T10:47:17.490Z,-0.19
2023-11-30T11:02:19.582Z,-0.01
2023-11-30T11:17:22.897Z,0.06
2023-11-30T11:32:26.547Z,-0.02
2023-11-30T11:47:28.615Z,-0.33
2023-11-30T12:02:31.574Z,0.33
2023-11-30T12:17:34.870Z,0.42
2023-11-30T12:32:39.438Z,0.42
2023-11-30T12:47:42.205Z,0.52
2023-11-30T13:02:47.255Z,0.28
2023-11-30T13:17:49.886Z,0.02
2023-11-30T13:32:52.125Z,-0.44
2023-11-30T13:47:54.259Z,-0.77
2023-11-30T14:02:56.309Z,-1.12
2023-11-30T14:17:58.444Z,-1.63
2023-11-30T14:33:01.902Z,-2.06
2023-11-30T14:48:07.646Z,-2.42
2023-11-30T15:03:12.347Z,-2.35
2023-11-30T15:18:14.584Z,-2.40
2023-11-30T15:33:16.808Z,-2.29
2023-11-30T15:48:19.371Z,-2.32
2023-11-30T16:03:23.278Z,-2.46
2023-11-30T16:18:25.569Z,-2.85
2023-11-30T16:33:29.123Z,-3.04
2023-11-30T16:48:31.239Z,-3.05
2023-11-30T17:03:33.800Z,-2.74
2023-11-30T17:18:36.853Z,-2.57
2023-11-30T17:33:39.391Z,-2.52
2023-11-30T17:48:41.660Z,-2.48
2023-11-30T18:03:44.227Z,-2.32
2023-11-30T18:18:47.215Z,-2.29
2023-11-30T18:33:49.827Z,-2.15
2023-11-30T18:48:52.493Z,-2.06
2023-11-30T19:03:56.901Z,-2.11
2023-11-30T19:18:59.785Z,-2.32
2023-11-30T19:34:03.009Z,-2.74
2023-11-30T19:49:06.150Z,-3.25
2023-11-30T20:04:09.119Z,-3.78
2023-11-30T20:19:14.500Z,-4.21
2023-11-30T20:34:17.469Z,-4.57
2023-11-30T20:49:20.941Z,-5.01
2023-11-30T21:04:23.184Z,-5.42
2023-11-30T21:19:26.325Z,-5.62
2023-11-30T21:34:28.256Z,-5.95
2023-11-30T21:49:30.314Z,-6.16
2023-11-30T22:04:33.193Z,-6.37
2023-11-30T22:19:35.396Z,-6.50
2023-11-30T22:34:37.552Z,-6.62
2023-11-30T22:49:39.726Z,-6.74
2023-11-30T23:04:42.125Z,-6.85
2023-11-30T23:19:44.253Z,-6.97
2023-11-30T23:34:46.755Z,-7.26
2023-11-30T23:49:48.966Z,-7.50
